Thunder radar more information blitzortung!


Rain radar more information rain snow radar


Visit our other weather sites:

This is on of my
other sites

And another one, using WeatherLink Live

Information provided by my Davis Vantage Pro station



Nearby METAR Reports

   
EHVK - Volkel Rnlafb, Netherlands
Distance from station: SW 18 km
Updated: 07-03-2021 08:35
Mist, Partly Cloudy  
Mist, Partly Cloudy  
   Wind: NNW 1.9 km/h
Wind: NNW 1.9 km/h
Temperature: -1°C
Dew Point: -1°C
Humidity: 100%
Barometer: 1027 hPa
Clouds: Partly Cloudy
Visibility: 6 km
Cloud details: Partly Cloudy 3500 ft
EHVK 070735Z AUTO 33001KT 6000 BR SCT035 M01/M01 Q1027 WHT
EDLV - Niederrhein, Germany
Distance from station: SE 25 km
Updated: 07-03-2021 08:20
Freezing, Fog, Partly Cloudy  
Freezing, Fog, Partly Cloudy  
   Wind: North 1.9 km/h
Wind: North 1.9 km/h
Temperature: -2°C
Dew Point: -3°C
Humidity: 93%
Barometer: 1027 hPa
Clouds: Partly Cloudy
Visibility: 1 km
Cloud details: Partly Cloudy
EDLV 070720Z 36001KT 0500 R27/0550V1100U FZFG NSC M02/M03 Q1027
EHDL - Deelen Rnlafb, Netherlands
Distance from station: N 35 km
Updated: 07-03-2021 08:25
Overcast  
Overcast  
   Wind: varies 1.9 km/h
Wind: varies 1.9 km/h
Temperature: -3°C
Dew Point: -3°C
Humidity: 100%
Barometer: 1027 hPa
Clouds: Overcast
Visibility: More than 10 km
Cloud details: Overcast 3500 ft
EHDL 070725Z AUTO VRB01KT 9999 OVC035 M03/M03 Q1027 BLU
EHEH - Eindhoven Rnlafb, Netherlands
Distance from station: SW 48 km
Updated: 07-03-2021 08:25
Freezing, Fog, Overcast  
Freezing, Fog, Overcast  
   Wind: NW 1.9 km/h
Wind: NW 1.9 km/h
Temperature: -3°C
Dew Point: -4°C
Humidity: 93%
Barometer: 1027 hPa
Clouds: Overcast
Visibility: 0 km
Cloud details: Overcast
EHEH 070725Z AUTO 32001KT 0100 R03/0075D FZFG OVC000 M03/M04 Q1027 RED TEMPO 0250 FZFG BCFG BKN000 RMK LVP BRAVO
EHGR - Gilze-Rijen Rnla, Netherlands
Distance from station: WSW 70 km
Updated: 07-03-2021 08:36
Mist, Overcast  
Mist, Overcast  
   Wind: varies 1.9 km/h
Wind: varies 1.9 km/h
Temperature: -2°C
Dew Point: -2°C
Humidity: 100%
Barometer: 1027 hPa
Clouds: Overcast
Visibility: 3 km
Cloud details: Mostly Cloudy,
Overcast 3300 ft
EHGR 070736Z AUTO VRB01KT 3100 BR BKN000 OVC033 M02/M02 Q1027 RED
EBBL - Kleine-Brogel(Ba, Belgium
Distance from station: SSW 71 km
Updated: 07-03-2021 08:25
Fog, Overcast  
Fog, Overcast  
   Wind: varies 3.7 km/h
Wind: varies 3.7 km/h
Temperature: -2°C
Dew Point: -2°C
Humidity: 100%
Barometer: 1027 hPa
Clouds: Overcast
Visibility: 0 km
Cloud details: Overcast 200 ft
EBBL 070725Z AUTO VRB02KT 0100 FG OVC002/// M02/M02 Q1027 RED

Script developed by  Saratoga-weather.org Adapted for the template by  Weerstation Leuven

You find our weather info also at:

UK Metoffice

WeatherCloud

AWEKAS

Citizen Weather Observer Program (CWOP)

Equipment we use:

Weather-station
Davis VP2 plus

Weather-program
Meteobridge

Davis VP2 plus

Meteobridge